Taunton 2W

41° 53' 56"N, 71° 08' 19"W, Elevation 50 ft.
Eastern Time

Hourly observations for the last 72 hours

Date Time Temperature (°F) Humi-
dity

(%)
Wind
(mph)
Pressure Rain (in) Sun
(W/m2)
UV ET
(in)
Air Dew 6 Hour 1 Hr 3 Hr 6 Hr Day
Alt
(in)
Sea
Level

(mb)
Max Min
22 09:00 36.3 31.6 83 SW 4 G 7 30.19 1022.4 0.00 322 0.6 0.000
22 08:00 25.8 24.1 25.8 22.8 93 Calm 30.18 1022.0 0.00 105 0.0 0.000
22 07:00 23.0 21.3 93 Calm 30.16 1021.4 0.00 0 0.0 0.000
22 06:00 23.1 21.4 93 Calm 30.15 1020.9 0.00 0 0.0 0.000
22 05:00 23.4 21.7 93 Calm 30.13 1020.3 0.00 0 0.0 0.000
22 04:00 24.3 22.6 93 Calm 30.11 1019.8 0.00 0 0.0 0.000
22 03:00 24.7 22.7 92 Calm 30.11 1019.8 0.00 0 0.0 0.000
22 02:00 25.2 23.2 31.6 25.2 92 Calm 30.10 1019.4 0.00 0 0.0 0.000
22 01:00 26.5 24.5 92 NW 0 G 2 30.08 1018.8 0.00 0 0.0 0.000
22 00:00 27.8 25.3 90 NW 2 G 3 30.07 1018.4 0.20 0 0.0 0.074
21 23:00 28.9 25.5 87 NW 2 G 4 30.06 1017.9 0.20 0 0.0 0.074
21 22:00 28.2 26.2 92 Calm 30.04 1017.3 0.20 0 0.0 0.074
21 21:00 29.1 26.8 91 Calm 30.02 1016.6 0.20 0 0.0 0.074
21 20:00 31.6 28.2 48.1 31.6 87 NW 1 G 2 29.98 1015.3 0.20 0 0.0 0.074
21 19:00 36.1 27.3 70 NW 1 G 4 29.96 1014.5 0.20 0 0.0 0.073
21 18:00 40.7 26.2 56 NW 8 G 20 29.91 1013.0 0.20 0 0.0 0.070
21 17:00 43.2 28.1 55 NW 11 G 23 29.86 1011.3 0.20 114 0.0 0.063
21 16:00 44.6 29.0 54 NW 14 G 27 29.83 1010.1 0.20 120 0.6 0.055
21 15:00 47.4 31.1 53 NW 17 G 26 29.80 1009.2 0.20 172 1.0 0.042
21 14:00 47.2 31.4 49.7 41.9 54 WNW 14 G 30 29.77 1008.2 0.06 0.20 673 1.9 0.028
21 13:00 48.8 34.7 58 NW 11 G 20 29.75 1007.7 0.20 633 2.4 0.014
21 12:00 46.8 35.3 64 NNW 13 G 21 29.75 1007.7 0.20 594 2.1 0.006
21 11:00 44.8 40.6 85 NNW 7 G 17 29.74 1007.0 0.06 0.20 236 1.0 0.003
21 10:00 42.2 39.5 90 NNW 7 G 13 29.74 1007.0 0.02 0.20 60 0.0 0.002
21 09:00 42.2 40.3 93 NNW 2 G 9 29.71 1006.2 0.04 0.18 33 0.0 0.001
21 08:00 43.1 40.1 46.5 43.1 89 NNW 11 G 18 29.68 1005.1 0.02 0.13 0.14 0.14 7 0.0 0.000
21 07:00 44.8 42.3 91 NNW 6 G 9 29.63 1003.5 0.04 0.12 0 0.0 0.000
21 06:00 45.9 44.0 93 NW 5 G 9 29.59 1002.0 0.07 0.08 0 0.0 0.000
21 05:00 46.4 45.0 95 W 3 G 6 29.56 1001.2 0.01 0.01 0.01 0 0.0 0.000
21 04:00 45.2 44.1 96 Calm 29.53 1000.0 0.00 0 0.0 0.000
21 03:00 44.4 43.3 96 Calm 29.52 999.7 0.00 0 0.0 0.000
21 02:00 43.8 42.7 47.2 40.8 96 Calm 29.54 1000.4 0.00 0 0.0 0.000
21 01:00 42.8 41.7 96 NW 0 G 2 29.56 1000.9 0.00 0 0.0 0.000
21 00:00 41.9 40.8 96 Calm 29.57 1001.3 0.00 0 0.0 0.067
20 23:00 41.8 40.5 95 Calm 29.58 1001.6 0.00 0 0.0 0.067
20 22:00 44.1 42.2 93 NW 1 G 2 29.58 1001.6 0.00 0 0.0 0.067
20 21:00 47.0 45.4 94 Calm 29.57 1001.3 0.00 0 0.0 0.067
20 20:00 46.8 44.6 64.9 46.8 92 Calm 29.57 1001.4 0.00 0 0.0 0.067
20 19:00 52.1 47.4 84 NW 1 G 3 29.57 1001.3 0.00 0 0.0 0.067
20 18:00 54.5 48.8 81 W 0 G 1 29.54 1000.4 0.00 0 0.0 0.066
20 17:00 62.1 49.4 63 SSW 1 G 9 29.53 1000.1 0.00 116 0.0 0.060
20 16:00 63.7 50.4 62 W 5 G 9 29.55 1000.6 0.00 260 0.7 0.053
20 15:00 62.4 51.7 68 WSW 4 G 12 29.56 1001.1 0.00 283 1.1 0.047
20 14:00 64.9 53.3 65.2 56.8 66 SSW 6 G 13 29.57 1001.5 0.00 476 1.5 0.038
20 13:00 61.9 52.4 71 W 8 G 15 29.60 1002.4 0.00 199 1.2 0.031
20 12:00 61.2 53.2 75 W 6 G 13 29.63 1003.3 0.00 197 1.3 0.023
20 11:00 61.3 54.0 77 SW 9 G 14 29.64 1003.7 0.00 229 1.9 0.016
20 10:00 58.7 52.9 81 SW 9 G 17 29.68 1005.0 0.00 165 0.9 0.013
20 09:00 57.1 51.3 81 SSW 10 G 15 29.68 1005.3 0.00 37 0.0 0.011
20 08:00 56.9 51.8 58.2 56.1 83 S 8 G 16 29.68 1005.2 0.00 18 0.0 0.010
20 07:00 56.3 50.9 82 SSW 9 G 14 29.68 1005.2 0.00 0 0.0 0.009
20 06:00 56.4 51.0 82 SSW 6 G 14 29.69 1005.6 0.00 0 0.0 0.007
20 05:00 58.0 49.4 73 S 8 G 15 29.72 1006.6 0.00 0 0.0 0.005
20 04:00 58.2 49.2 72 SSW 5 G 13 29.74 1007.2 0.00 0 0.0 0.003
20 03:00 57.6 51.5 80 SSW 5 G 13 29.79 1008.7 0.00 0 0.0 0.002
20 02:00 56.1 51.0 56.3 52.9 83 SSW 2 G 8 29.81 1009.6 0.00 0 0.0 0.001
20 01:00 55.8 50.1 81 SSW 6 G 10 29.85 1010.9 0.00 0 0.0 0.000
20 00:00 55.3 47.5 75 SSW 7 G 13 29.86 1011.2 0.00 0 0.0 0.110
19 23:00 54.2 45.7 73 SSW 7 G 13 29.92 1013.1 0.00 0 0.0 0.108
19 22:00 54.7 45.1 70 SSW 9 G 13 29.93 1013.7 0.00 0 0.0 0.106
19 21:00 53.5 43.6 69 SSW 9 G 14 29.94 1014.0 0.00 0 0.0 0.104
19 20:00 53.2 42.9 60.4 53.1 68 SSW 7 G 13 29.97 1015.0 0.00 0 0.0 0.102
19 19:00 53.3 42.6 67 S 4 G 11 30.00 1015.8 0.00 0 0.0 0.100
19 18:00 54.2 41.9 63 SSW 4 G 13 29.98 1015.3 0.00 0 0.0 0.098
19 17:00 56.9 43.6 61 S 8 G 18 29.99 1015.6 0.00 84 0.0 0.093
19 16:00 59.1 45.7 61 SSW 8 G 16 30.01 1016.2 0.00 153 0.6 0.083
19 15:00 60.0 42.8 53 SW 7 G 14 30.02 1016.8 0.00 448 1.5 0.070
19 14:00 58.9 39.3 59.6 34.8 48 SSW 10 G 19 30.07 1018.2 0.00 499 2.1 0.055
19 13:00 57.9 37.8 47 SSW 11 G 18 30.10 1019.4 0.00 650 2.8 0.040
19 12:00 55.5 37.7 51 SW 11 G 19 30.15 1021.0 0.00 633 2.8 0.025
19 11:00 52.7 36.1 53 WSW 9 G 15 30.18 1021.9 0.00 584 2.3 0.013
19 10:00 48.7 34.6 58 SSW 7 G 13 30.21 1022.9 0.00 480 1.5 0.005

Data generated by WxSolution Version 1.9.1.7, Build 2018.10.14.